KORD/ORD METAR and TAF weather

Enter ICAO airport designator
Station Type Date Time Source
KORD METAR 2020/01/22 20:51 UTC NOAA

KORD 222051Z 18011KT 10SM SCT150 OVC250 01/M06 A3013 RMK AO2 SLP210 T00111056 56018


Station Type Date Time Source
KORD Decoded METAR 2020/01/22 20:51 UTC NOAA

CHICAGO O'HARE INTERNATIONAL, IL, United States (KORD) 41-59N 087-55W 200M
Jan 22, 2020 - 03:51 PM EST / 2020.01.22 2051 UTC
Wind: from the S (180 degrees) at 13 MPH (11 KT):0
Visibility: 10 mile(s):0
Sky conditions: overcast
Temperature: 34.0 F (1.1 C)
Windchill: 24 F (-4 C):1
Dew Point: 21.9 F (-5.6 C)
Relative Humidity: 60%
Pressure (altimeter): 30.13 in. Hg (1020 hPa)
Pressure tendency: 0.05 inches (1.8 hPa) lower than three hours ago
ob: KORD 222051Z 18011KT 10SM SCT150 OVC250 01/M06 A3013 RMK AO2 SLP210 T00111056 56018
cycle: 21

Station Type Date Time Source
KORD TAF 2020/01/22 21:54 UTC NOAA

TAF
AMD KORD 222053Z 2221/2324 18014G21KT P6SM OVC150
FM230000 18011G17KT P6SM OVC100
FM230700 18010KT 2SM -SN BR OVC020
FM230900 18010KT 1 1/2SM -SN BR OVC012
FM231500 17009KT 2SM -SN BR OVC007
FM231900 16008KT 3SM -SNDZ BR OVC006

Example: see airport list